createdAt,value
2018-03-01T00:04:42.344Z,-6.64
2018-03-01T00:09:43.904Z,-6.62
2018-03-01T00:14:45.439Z,-6.73
2018-03-01T00:19:46.964Z,-6.76
2018-03-01T00:24:48.517Z,-6.83
2018-03-01T00:29:50.027Z,-6.78
2018-03-01T00:34:51.584Z,-6.75
2018-03-01T00:39:53.116Z,-6.86
2018-03-01T00:44:54.666Z,-6.64
2018-03-01T00:49:56.204Z,-6.74
2018-03-01T00:54:57.753Z,-6.71
2018-03-01T00:59:59.272Z,-6.84
2018-03-01T01:05:00.930Z,-6.83
2018-03-01T01:10:02.530Z,-6.75
2018-03-01T01:15:04.039Z,-6.86
2018-03-01T01:20:05.648Z,-6.80
2018-03-01T01:25:07.181Z,-6.88
2018-03-01T01:30:08.779Z,-6.88
2018-03-01T01:35:10.335Z,-6.87
2018-03-01T01:40:11.818Z,-6.86
2018-03-01T01:45:13.391Z,-6.81
2018-03-01T01:50:14.859Z,-6.57
2018-03-01T01:55:16.404Z,-6.63
2018-03-01T02:00:18.707Z,-6.55
2018-03-01T02:05:20.383Z,-6.35
2018-03-01T02:10:21.944Z,-6.27
2018-03-01T02:15:23.551Z,-6.23
2018-03-01T02:20:25.142Z,-6.09
2018-03-01T02:25:26.697Z,-6.14
2018-03-01T02:30:29.017Z,-6.05
2018-03-01T02:35:31.341Z,-6.01
2018-03-01T02:40:32.931Z,-5.92
2018-03-01T02:45:34.484Z,-5.87
2018-03-01T02:50:36.785Z,-5.80
2018-03-01T02:55:38.319Z,-5.80
2018-03-01T03:00:40.604Z,-5.85
2018-03-01T03:05:42.159Z,-5.83
2018-03-01T03:10:43.767Z,-5.88
2018-03-01T03:15:45.319Z,-5.70
2018-03-01T03:20:46.859Z,-5.70
2018-03-01T03:25:48.352Z,-5.72
2018-03-01T03:30:49.885Z,-5.82
2018-03-01T03:35:52.224Z,-5.94
2018-03-01T03:40:53.792Z,-6.02
2018-03-01T03:45:55.328Z,-5.97
2018-03-01T03:50:56.827Z,-6.06
2018-03-01T03:55:58.335Z,-5.98
2018-03-01T04:00:59.821Z,-6.19
2018-03-01T04:06:01.366Z,-6.25
2018-03-01T04:11:02.939Z,-6.21
2018-03-01T04:16:04.489Z,-6.26
2018-03-01T04:21:06.035Z,-6.40
2018-03-01T04:26:07.585Z,-6.41
2018-03-01T04:31:09.143Z,-6.49
2018-03-01T04:36:11.408Z,-6.56
2018-03-01T04:41:12.988Z,-6.45
2018-03-01T04:46:14.532Z,-6.50
2018-03-01T04:51:16.129Z,-6.68
2018-03-01T04:56:17.653Z,-6.61
2018-03-01T05:01:19.224Z,-6.56
2018-03-01T05:06:20.729Z,-6.43
2018-03-01T05:11:23.009Z,-6.63
2018-03-01T05:16:24.548Z,-6.64
2018-03-01T05:21:26.074Z,-6.69
2018-03-01T05:26:27.590Z,-6.56
2018-03-01T05:31:29.106Z,-6.50
2018-03-01T05:36:31.361Z,-6.66
2018-03-01T05:41:32.907Z,-6.67
2018-03-01T05:46:35.187Z,-6.62
2018-03-01T05:51:36.706Z,-6.65
2018-03-01T05:56:38.225Z,-6.48
2018-03-01T06:01:39.859Z,-6.45
2018-03-01T06:06:41.416Z,-6.61
2018-03-01T06:11:42.987Z,-6.70
2018-03-01T06:16:44.540Z,-6.55
2018-03-01T06:21:46.159Z,-6.39
2018-03-01T06:26:47.750Z,-6.49
2018-03-01T06:31:49.340Z,-6.39
2018-03-01T06:36:50.904Z,-6.23
2018-03-01T06:41:52.458Z,-6.43
2018-03-01T06:46:54.026Z,-6.38
2018-03-01T06:51:56.307Z,-6.26
2018-03-01T06:56:57.868Z,-6.21
2018-03-01T07:02:00.106Z,-6.23
2018-03-01T07:07:01.658Z,-6.03
2018-03-01T07:12:03.174Z,-6.16
2018-03-01T07:17:05.449Z,-6.00
2018-03-01T07:22:06.987Z,-5.83
2018-03-01T07:27:08.511Z,-5.87
2018-03-01T07:32:10.060Z,-5.89
2018-03-01T07:37:13.148Z,-5.96
2018-03-01T07:42:15.858Z,-5.72
2018-03-01T07:47:17.416Z,-5.62
2018-03-01T07:52:20.493Z,-5.43
2018-03-01T07:57:22.019Z,-5.43
2018-03-01T08:02:23.575Z,-5.28
2018-03-01T08:07:25.160Z,-5.21
2018-03-01T08:12:26.711Z,-5.06
2018-03-01T08:17:28.975Z,-5.16
2018-03-01T08:22:30.527Z,-5.08
2018-03-01T08:27:32.777Z,-4.90
2018-03-01T08:32:34.303Z,-4.80
2018-03-01T08:37:35.818Z,-4.64
2018-03-01T08:42:38.119Z,-4.52
2018-03-01T08:47:39.680Z,-4.26
2018-03-01T08:52:41.176Z,-4.28
2018-03-01T08:57:42.680Z,-4.44
2018-03-01T09:02:44.251Z,-4.35
2018-03-01T09:07:45.802Z,-4.15
2018-03-01T09:12:48.111Z,-4.35
2018-03-01T09:17:50.402Z,-4.37
2018-03-01T09:22:51.910Z,-4.11
2018-03-01T09:27:53.416Z,-3.86
2018-03-01T09:32:54.984Z,-4.19
2018-03-01T09:37:56.527Z,-3.83
2018-03-01T09:42:58.063Z,-3.92
2018-03-01T09:47:59.620Z,-3.93
2018-03-01T09:53:01.137Z,-3.84
2018-03-01T09:58:02.730Z,-3.80
2018-03-01T10:03:04.311Z,-3.64
2018-03-01T10:08:05.891Z,-3.75
2018-03-01T10:13:07.442Z,-4.08
2018-03-01T10:18:08.995Z,-3.94
2018-03-01T10:23:10.560Z,-3.76
2018-03-01T10:28:12.812Z,-3.63
2018-03-01T10:33:14.339Z,-3.70
2018-03-01T10:38:15.851Z,-3.26
2018-03-01T10:43:18.113Z,-3.02
2018-03-01T10:48:19.708Z,-2.70
2018-03-01T10:53:21.247Z,-2.83
2018-03-01T10:58:23.500Z,-2.81
2018-03-01T11:03:24.970Z,-2.42
2018-03-01T11:08:26.398Z,-2.44
2018-03-01T11:13:27.974Z,-2.23
2018-03-01T11:18:29.559Z,-2.42
2018-03-01T11:23:31.151Z,-2.42
2018-03-01T11:28:32.700Z,-2.53
2018-03-01T11:33:36.295Z,-2.53
2018-03-01T11:38:37.769Z,-2.64
2018-03-01T11:43:39.328Z,-2.55
2018-03-01T11:48:40.892Z,-2.21
2018-03-01T11:53:42.239Z,-2.59
2018-03-01T11:58:44.542Z,-2.60
2018-03-01T12:03:46.797Z,-2.28
2018-03-01T12:08:48.366Z,-2.04
2018-03-01T12:13:50.673Z,-1.57
2018-03-01T12:18:52.250Z,-1.65
2018-03-01T12:23:53.911Z,-1.69
2018-03-01T12:28:55.469Z,-1.56
2018-03-01T12:33:57.013Z,-1.54
2018-03-01T12:38:58.608Z,-1.40
2018-03-01T12:44:00.151Z,-1.15
2018-03-01T12:49:01.731Z,-1.18
2018-03-01T12:54:04.061Z,-1.42
2018-03-01T12:59:05.682Z,-1.24
2018-03-01T13:04:07.470Z,-1.01
2018-03-01T13:09:09.058Z,-1.33
2018-03-01T13:14:10.643Z,-0.95
2018-03-01T13:19:12.932Z,-1.16
2018-03-01T13:24:14.317Z,-1.07
2018-03-01T13:29:15.825Z,-1.28
2018-03-01T13:34:23.471Z,-1.26
2018-03-01T13:39:25.055Z,-1.49
2018-03-01T13:44:27.395Z,-1.48
2018-03-01T13:49:29.039Z,-1.19
2018-03-01T13:54:30.556Z,-1.15
2018-03-01T13:59:32.166Z,-1.35
2018-03-01T14:04:34.618Z,-1.39
2018-03-01T14:09:36.232Z,-1.39
2018-03-01T14:14:38.693Z,-1.24
2018-03-01T14:19:46.263Z,-1.38
2018-03-01T14:24:49.085Z,-1.45
2018-03-01T14:29:53.566Z,-1.68
2018-03-01T14:34:55.104Z,-1.55
2018-03-01T14:39:57.390Z,-1.42
2018-03-01T14:44:58.927Z,-1.41
2018-03-01T14:50:00.469Z,-1.44
2018-03-01T14:55:02.036Z,-1.31
2018-03-01T15:00:03.669Z,-1.26
2018-03-01T15:05:05.200Z,-1.63
2018-03-01T15:10:06.800Z,-1.39
2018-03-01T15:15:09.455Z,-1.36
2018-03-01T15:20:10.924Z,-1.39
2018-03-01T15:25:12.465Z,-1.21
2018-03-01T15:30:14.003Z,-1.29
2018-03-01T15:35:15.562Z,-1.46
2018-03-01T15:40:17.536Z,-1.43
2018-03-01T15:45:19.119Z,-1.50
2018-03-01T15:50:20.747Z,-1.55
2018-03-01T15:55:22.381Z,-1.72
2018-03-01T16:00:23.914Z,-1.90
2018-03-01T16:05:25.443Z,-1.92
2018-03-01T16:10:26.986Z,-1.87
2018-03-01T16:15:28.498Z,-2.01
2018-03-01T16:20:30.020Z,-2.20
2018-03-01T16:25:31.555Z,-2.33
2018-03-01T16:30:33.166Z,-2.24
2018-03-01T16:35:34.667Z,-2.38
2018-03-01T16:40:36.174Z,-2.39
2018-03-01T16:45:37.657Z,-2.56
2018-03-01T16:50:39.186Z,-2.62
2018-03-01T16:55:40.519Z,-2.62
2018-03-01T17:00:42.770Z,-2.87
2018-03-01T17:05:44.320Z,-2.86
2018-03-01T17:10:45.891Z,-2.74
2018-03-01T17:15:47.506Z,-2.87
2018-03-01T17:20:49.848Z,-2.83
2018-03-01T17:25:51.476Z,-2.76
2018-03-01T17:30:53.032Z,-3.08
2018-03-01T17:35:54.668Z,-3.02
2018-03-01T17:40:56.211Z,-3.26
2018-03-01T17:45:57.782Z,-3.15
2018-03-01T17:50:59.355Z,-3.19
2018-03-01T17:56:00.948Z,-3.21
2018-03-01T18:01:02.522Z,-3.26
2018-03-01T18:06:04.084Z,-3.29
2018-03-01T18:11:05.650Z,-3.25
2018-03-01T18:16:07.259Z,-3.24
2018-03-01T18:21:09.634Z,-3.27
2018-03-01T18:26:11.137Z,-3.24
2018-03-01T18:31:12.821Z,-3.30
2018-03-01T18:36:14.378Z,-3.32
2018-03-01T18:41:15.939Z,-3.64
2018-03-01T18:46:18.244Z,-3.49
2018-03-01T18:51:20.676Z,-3.51
2018-03-01T18:56:23.005Z,-3.61
2018-03-01T19:01:24.563Z,-3.48
2018-03-01T19:06:26.120Z,-3.51
2018-03-01T19:11:28.568Z,-3.59
2018-03-01T19:16:30.557Z,-3.57
2018-03-01T19:21:32.146Z,-3.46
2018-03-01T19:26:33.522Z,-3.57
2018-03-01T19:31:35.050Z,-3.49
2018-03-01T19:36:37.716Z,-3.53
2018-03-01T19:41:39.267Z,-3.56
2018-03-01T19:46:40.881Z,-3.49
2018-03-01T19:51:42.506Z,-3.63
2018-03-01T19:56:44.021Z,-3.53
2018-03-01T20:01:45.752Z,-3.59
2018-03-01T20:06:47.428Z,-3.64
2018-03-01T20:11:49.116Z,-3.78
2018-03-01T20:16:50.833Z,-3.60
2018-03-01T20:21:53.382Z,-3.73
2018-03-01T20:26:56.020Z,-3.73
2018-03-01T20:31:57.725Z,-3.80
2018-03-01T20:37:00.140Z,-3.81
2018-03-01T20:42:02.225Z,-3.73
2018-03-01T20:47:03.700Z,-3.88
2018-03-01T20:52:06.109Z,-3.98
2018-03-01T20:57:07.640Z,-4.05
2018-03-01T21:02:09.936Z,-3.85
2018-03-01T21:07:11.507Z,-3.85
2018-03-01T21:12:13.079Z,-4.07
2018-03-01T21:17:14.615Z,-3.98
2018-03-01T21:22:16.215Z,-3.91
2018-03-01T21:27:18.600Z,-4.13
2018-03-01T21:32:21.442Z,-4.20
2018-03-01T21:37:24.138Z,-4.33
2018-03-01T21:42:33.719Z,-4.36
2018-03-01T21:47:36.357Z,-4.39
2018-03-01T21:52:37.968Z,-4.55
2018-03-01T21:57:39.847Z,-4.40
2018-03-01T22:02:41.435Z,-4.62
2018-03-01T22:07:43.041Z,-4.55
2018-03-01T22:12:44.727Z,-4.52
2018-03-01T22:17:51.251Z,-4.60
2018-03-01T22:22:52.877Z,-4.71
2018-03-01T22:27:54.600Z,-4.72
2018-03-01T22:32:56.220Z,-4.64
2018-03-01T22:37:57.832Z,-4.82
2018-03-01T22:42:59.943Z,-4.86
2018-03-01T22:48:01.676Z,-4.81
2018-03-01T22:53:04.047Z,-4.90
2018-03-01T22:58:05.729Z,-4.95
2018-03-01T23:03:07.315Z,-4.92
2018-03-01T23:08:09.041Z,-5.00
2018-03-01T23:13:10.549Z,-5.08
2018-03-01T23:18:12.126Z,-5.03
2018-03-01T23:23:13.713Z,-5.05
2018-03-01T23:28:15.323Z,-5.11
2018-03-01T23:33:16.920Z,-5.16
2018-03-01T23:38:19.942Z,-5.08
2018-03-01T23:43:21.541Z,-5.09
2018-03-01T23:48:23.171Z,-5.21
2018-03-01T23:53:24.739Z,-5.22
2018-03-01T23:58:26.419Z,-5.29
